Time;durP1;ratioP1;P1;durP2;ratioP2;P2;SDS_P1;SDS_P2;PMS_P1;PMS_P2;Temp;Humidity;BMP_temperature;BMP_pressure;BME280_temperature;BME280_humidity;BME280_pressure;Samples;Min_cycle;Max_cycle;Signal;HPM_P1;HPM_P2
2022/03/01 00:01:03;;;;;;;;;16.75;15.25;;;;;19.84;34.72;102301.91;5073923;28;51014;-53
2022/03/01 00:03:29;;;;;;;;;13.75;12.75;;;;;19.81;35.04;102297.63;5074147;28;51038;-53
2022/03/01 00:05:54;;;;;;;;;17.75;14.75;;;;;19.80;35.03;102289.53;5074785;28;51160;-55
2022/03/01 00:08:19;;;;;;;;;18.25;16.00;;;;;19.79;35.04;102296.94;5073739;28;51018;-52
2022/03/01 00:10:45;;;;;;;;;12.75;12.75;;;;;19.77;34.96;102304.50;5077317;28;52484;-52
2022/03/01 00:13:10;;;;;;;;;14.25;12.25;;;;;19.77;34.99;102298.16;5075232;28;51402;-50
2022/03/01 00:15:37;;;;;;;;;16.00;14.00;;;;;19.75;34.90;102303.84;5058771;28;51151;-51
2022/03/01 00:18:02;;;;;;;;;13.75;13.75;;;;;19.75;34.58;102300.25;5060102;28;51196;-52
2022/03/01 00:20:28;;;;;;;;;17.25;15.75;;;;;19.73;34.87;102302.31;5059135;28;51222;-52
2022/03/01 00:22:53;;;;;;;;;19.50;16.50;;;;;19.72;34.76;102301.47;5059892;28;51096;-50
2022/03/01 00:25:18;;;;;;;;;17.25;16.25;;;;;19.72;34.92;102308.88;5079004;28;51132;-52
2022/03/01 00:27:44;;;;;;;;;13.25;13.25;;;;;19.69;34.83;102296.31;5076559;28;52083;-51
2022/03/01 00:30:10;;;;;;;;;15.25;13.25;;;;;19.68;34.51;102291.00;5088354;27;51762;-51
2022/03/01 00:32:35;;;;;;;;;18.00;16.75;;;;;19.67;34.53;102294.78;5087591;27;51408;-51
2022/03/01 00:35:00;;;;;;;;;14.75;14.50;;;;;19.67;34.51;102289.28;5059198;28;51262;-51
2022/03/01 00:37:26;;;;;;;;;13.75;11.50;;;;;19.64;34.70;102284.16;5068029;28;51193;-53
2022/03/01 00:39:51;;;;;;;;;17.75;15.25;;;;;19.63;34.60;102286.06;5075239;28;51673;-52
2022/03/01 00:42:16;;;;;;;;;17.75;15.50;;;;;19.62;34.45;102280.75;5076672;28;51009;-53
2022/03/01 00:44:42;;;;;;;;;14.00;14.00;;;;;19.60;34.51;102279.03;5071520;28;51179;-54
2022/03/01 00:47:07;;;;;;;;;16.00;15.25;;;;;19.59;34.71;102276.44;5077164;28;51056;-52
2022/03/01 00:49:34;;;;;;;;;16.00;13.00;;;;;19.59;34.67;102276.44;5069877;27;51036;-53
2022/03/01 00:51:59;;;;;;;;;13.00;12.50;;;;;19.58;34.50;102291.22;5077685;28;51429;-51
2022/03/01 00:54:24;;;;;;;;;14.00;12.25;;;;;19.57;34.70;102289.53;5064443;28;51139;-54
2022/03/01 00:56:50;;;;;;;;;15.75;12.75;;;;;19.58;34.58;102293.97;5076771;28;50965;-54
2022/03/01 00:59:15;;;;;;;;;16.75;15.25;;;;;19.56;34.76;102288.69;5073459;28;51159;-51
2022/03/01 01:01:40;;;;;;;;;13.50;13.50;;;;;19.56;34.44;102293.31;5058769;28;51459;-53
2022/03/01 01:04:06;;;;;;;;;15.25;14.50;;;;;19.54;34.50;102289.88;5068746;28;51080;-52
2022/03/01 01:06:31;;;;;;;;;16.75;12.25;;;;;19.54;34.72;102295.38;5078295;28;51370;-50
2022/03/01 01:08:56;;;;;;;;;17.50;16.25;;;;;19.53;34.42;102296.41;5071982;28;51153;-53
2022/03/01 01:11:22;;;;;;;;;18.75;15.50;;;;;19.52;34.64;102291.94;5066874;28;51056;-52
2022/03/01 01:13:48;;;;;;;;;17.25;16.25;;;;;19.50;34.63;102288.53;5065520;28;51151;-51
2022/03/01 01:16:13;;;;;;;;;16.50;16.25;;;;;19.49;34.23;102279.44;5059002;28;51366;-52
2022/03/01 01:18:43;;;;;;;;;14.25;12.50;;;;;19.47;34.61;102278.72;5058557;28;51033;-53
2022/03/01 01:21:09;;;;;;;;;13.00;9.00;;;;;19.46;34.33;102276.16;5058385;28;51457;-51
2022/03/01 01:23:34;;;;;;;;;19.75;15.50;;;;;19.45;34.69;102275.31;5063172;28;51175;-53
2022/03/01 01:26:00;;;;;;;;;18.75;15.75;;;;;19.43;34.61;102265.53;5076595;28;51778;-50
2022/03/01 01:28:25;;;;;;;;;13.75;12.75;;;;;19.44;34.47;102278.25;5076088;28;51168;-52
2022/03/01 01:30:50;;;;;;;;;16.25;13.50;;;;;19.43;34.28;102271.91;5077752;27;51000;-52
2022/03/01 01:33:16;;;;;;;;;13.50;13.50;;;;;19.41;34.69;102270.38;5074163;28;51092;-52
2022/03/01 01:35:41;;;;;;;;;13.50;12.50;;;;;19.41;34.53;102273.97;5057878;28;51545;-53
2022/03/01 01:38:06;;;;;;;;;17.00;16.50;;;;;19.40;34.45;102264.03;5072173;28;51105;-53
2022/03/01 01:40:34;;;;;;;;;13.00;13.00;;;;;19.39;34.32;102259.56;5071428;28;51000;-53
2022/03/01 01:43:01;;;;;;;;;13.75;13.75;;;;;19.39;34.31;102265.06;5065027;28;51184;-53
2022/03/01 01:45:28;;;;;;;;;16.50;15.50;;;;;19.38;34.58;102265.22;5063669;28;51311;-52
2022/03/01 01:47:54;;;;;;;;;17.50;17.50;;;;;19.36;34.38;102265.41;5070236;28;52010;-50
2022/03/01 01:50:20;;;;;;;;;18.50;15.25;;;;;19.36;34.39;102273.66;5060052;28;51042;-51
2022/03/01 01:52:48;;;;;;;;;19.50;18.00;;;;;19.35;34.33;102269.19;5063555;28;51110;-53
2022/03/01 01:55:15;;;;;;;;;15.00;14.00;;;;;19.33;34.50;102274.88;5075253;28;51374;-52
2022/03/01 01:57:40;;;;;;;;;15.50;15.50;;;;;19.33;34.35;102277.63;5074668;28;52346;-51
2022/03/01 02:00:07;;;;;;;;;14.00;11.75;;;;;19.32;34.11;102283.31;5068346;28;51075;-51
2022/03/01 02:02:32;;;;;;;;;15.75;14.75;;;;;19.32;34.29;102275.06;5073708;28;51471;-48
2022/03/01 02:05:00;;;;;;;;;17.25;15.75;;;;;19.31;34.33;102278.84;5072582;28;51159;-51
2022/03/01 02:07:25;;;;;;;;;15.75;15.50;;;;;19.30;34.44;102277.13;5059078;28;52874;-51
2022/03/01 02:09:51;;;;;;;;;15.75;13.75;;;;;19.29;34.27;102278.16;5067164;28;51294;-51
2022/03/01 02:12:16;;;;;;;;;18.75;16.25;;;;;19.29;34.34;102275.44;5076812;28;51115;-51
2022/03/01 02:14:42;;;;;;;;;17.00;16.25;;;;;19.28;34.25;102276.47;5067016;28;51230;-52
2022/03/01 02:17:09;;;;;;;;;21.75;19.50;;;;;19.28;34.24;102279.22;5056801;28;51837;-49
2022/03/01 02:19:36;;;;;;;;;14.50;12.50;;;;;19.27;34.42;102269.22;5057844;28;51152;-53
2022/03/01 02:22:04;;;;;;;;;20.75;13.75;;;;;19.26;34.16;102273.88;5064353;28;51076;-50
2022/03/01 02:24:30;;;;;;;;;15.00;13.25;;;;;19.24;34.23;102267.72;5064921;28;51154;-51
2022/03/01 02:26:57;;;;;;;;;17.00;15.50;;;;;19.24;34.45;102267.72;5056655;28;52511;-50
2022/03/01 02:29:24;;;;;;;;;14.75;14.25;;;;;19.23;34.01;102270.63;5068407;27;51426;-51
2022/03/01 02:31:51;;;;;;;;;16.25;14.75;;;;;19.22;34.18;102274.44;5075373;28;51280;-51
2022/03/01 02:34:17;;;;;;;;;14.75;14.75;;;;;19.22;34.53;102263.44;5066139;28;51131;-49
2022/03/01 02:36:43;;;;;;;;;16.75;15.50;;;;;19.22;34.43;102260.69;5060358;28;51435;-52
2022/03/01 02:39:09;;;;;;;;;14.75;14.75;;;;;19.21;34.43;102261.72;5056580;28;51000;-51
2022/03/01 02:41:40;;;;;;;;;15.25;15.00;;;;;19.20;34.36;102265.50;5058472;28;51101;-51
2022/03/01 02:44:06;;;;;;;;;23.00;18.00;;;;;19.19;34.27;102266.56;5058085;28;51310;-51
2022/03/01 02:46:31;;;;;;;;;17.25;16.50;;;;;19.19;34.34;102264.66;5074170;28;51959;-52
2022/03/01 02:48:56;;;;;;;;;21.25;16.00;;;;;19.18;34.14;102256.59;5074913;28;51135;-51
2022/03/01 02:51:22;;;;;;;;;19.50;17.50;;;;;19.17;34.32;102265.84;5072988;28;51247;-49
2022/03/01 02:53:47;;;;;;;;;17.50;16.25;;;;;19.18;34.26;102267.59;5061653;28;51239;-50
2022/03/01 02:56:12;;;;;;;;;17.75;16.50;;;;;19.15;34.43;102263.28;5075583;28;51850;-54
2022/03/01 02:58:38;;;;;;;;;15.50;14.00;;;;;19.15;34.33;102273.41;5074518;28;51126;-53
2022/03/01 03:01:03;;;;;;;;;18.00;15.75;;;;;19.14;34.44;102268.97;5075292;28;51448;-50
2022/03/01 03:03:28;;;;;;;;;17.25;16.00;;;;;19.13;34.38;102273.59;5072257;28;51264;-52
2022/03/01 03:05:54;;;;;;;;;16.25;16.25;;;;;19.11;34.14;102275.69;5055949;28;51591;-52
2022/03/01 03:08:19;;;;;;;;;18.00;15.00;;;;;19.12;34.17;102277.38;5055948;28;51125;-53
2022/03/01 03:10:46;;;;;;;;;19.25;15.75;;;;;19.12;34.42;102287.53;5055581;28;51155;-52
2022/03/01 03:13:11;;;;;;;;;15.00;15.00;;;;;19.11;34.40;102283.06;5057019;28;51226;-55
2022/03/01 03:15:37;;;;;;;;;17.75;16.00;;;;;19.10;34.21;102275.88;5068258;28;51751;-51
2022/03/01 03:18:03;;;;;;;;;16.25;15.50;;;;;19.09;34.21;102271.41;5071275;28;51155;-50
2022/03/01 03:20:29;;;;;;;;;19.50;16.75;;;;;19.09;34.37;102274.16;5056808;28;51129;-53
2022/03/01 03:22:54;;;;;;;;;17.25;16.00;;;;;19.08;34.29;102280.69;5055815;28;51355;-51
2022/03/01 03:25:19;;;;;;;;;17.00;15.50;;;;;19.07;34.30;102270.69;5072261;28;51939;-52
2022/03/01 03:27:45;;;;;;;;;17.25;15.50;;;;;19.07;34.00;102267.97;5073814;28;51199;-51
2022/03/01 03:30:11;;;;;;;;;16.50;15.50;;;;;19.06;34.07;102267.09;5067030;27;51176;-52
2022/03/01 03:32:36;;;;;;;;;18.75;17.25;;;;;19.06;34.16;102266.25;5055486;28;51334;-53
2022/03/01 03:35:04;;;;;;;;;15.50;15.50;;;;;19.05;34.08;102270.88;5062383;28;52792;-53
2022/03/01 03:37:29;;;;;;;;;21.00;17.00;;;;;19.04;34.18;102269.19;5069498;28;51377;-55
2022/03/01 03:39:55;;;;;;;;;18.25;16.50;;;;;19.03;34.09;102271.06;5056669;28;51176;-48
2022/03/01 03:42:20;;;;;;;;;24.00;18.50;;;;;19.02;34.08;102272.09;5063695;28;51155;-49
2022/03/01 03:44:46;;;;;;;;;17.75;15.75;;;;;19.03;34.02;102267.47;5068650;28;51127;-54
2022/03/01 03:47:11;;;;;;;;;15.50;15.00;;;;;19.02;34.20;102263.88;5074328;28;51135;-49
2022/03/01 03:49:38;;;;;;;;;19.25;18.75;;;;;19.01;34.05;102262.16;5078879;28;51253;-51
2022/03/01 03:52:05;;;;;;;;;19.75;18.25;;;;;19.00;34.02;102254.97;5075506;28;51271;-52
2022/03/01 03:54:30;;;;;;;;;19.50;16.25;;;;;19.00;34.13;102259.59;5059053;28;51110;-50
2022/03/01 03:56:56;;;;;;;;;18.00;16.50;;;;;19.00;34.10;102260.44;5071811;28;51042;-51
2022/03/01 03:59:21;;;;;;;;;17.25;15.00;;;;;18.99;34.10;102253.25;5072050;28;50972;-52
2022/03/01 04:01:47;;;;;;;;;18.25;15.00;;;;;18.98;34.20;102264.41;5078651;28;51080;-49
2022/03/01 04:04:13;;;;;;;;;19.50;19.00;;;;;18.98;34.31;102264.41;5072042;28;51722;-56
2022/03/01 04:06:38;;;;;;;;;17.25;15.75;;;;;18.97;33.97;102266.31;5069277;28;51236;-49
2022/03/01 04:09:05;;;;;;;;;19.00;15.75;;;;;18.97;34.11;102265.44;5078548;28;51035;-49
2022/03/01 04:11:30;;;;;;;;;15.50;13.75;;;;;18.96;33.96;102255.47;5077184;28;51162;-53
2022/03/01 04:13:57;;;;;;;;;17.25;16.50;;;;;18.95;34.04;102251.03;5079064;28;51891;-51
2022/03/01 04:16:23;;;;;;;;;16.00;15.75;;;;;18.95;34.26;102240.03;5059984;28;51404;-53
2022/03/01 04:18:48;;;;;;;;;17.00;14.00;;;;;18.93;34.32;102237.47;5069793;28;51032;-49
2022/03/01 04:21:14;;;;;;;;;18.25;16.75;;;;;18.94;34.24;102238.31;5065715;28;51068;-52
2022/03/01 04:23:40;;;;;;;;;16.25;16.25;;;;;18.93;34.19;102228.38;5058701;28;51920;-53
2022/03/01 04:26:05;;;;;;;;;19.00;15.50;;;;;18.92;34.15;102235.75;5063467;28;51170;-53
2022/03/01 04:28:31;;;;;;;;;17.75;15.75;;;;;18.91;34.26;102242.28;5077787;27;51010;-53
2022/03/01 04:30:56;;;;;;;;;17.75;17.00;;;;;18.91;34.47;102246.94;5083692;27;51101;-51
2022/03/01 04:33:22;;;;;;;;;18.25;14.75;;;;;18.89;34.26;102247.13;5077303;28;52021;-49
2022/03/01 04:35:48;;;;;;;;;21.25;20.00;;;;;18.91;34.11;102252.44;5077049;28;51174;-51
2022/03/01 04:38:13;;;;;;;;;18.00;16.75;;;;;18.89;34.08;102260.84;5060648;28;51133;-52
2022/03/01 04:40:39;;;;;;;;;10.75;10.00;;;;;18.89;34.10;102254.50;5059692;28;51089;-53
2022/03/01 04:43:04;;;;;;;;;16.25;15.50;;;;;18.88;34.16;102256.38;5065669;28;51150;-52
2022/03/01 04:45:30;;;;;;;;;19.50;17.75;;;;;18.87;34.54;102254.69;5064685;28;51074;-51
2022/03/01 04:47:56;;;;;;;;;15.00;15.00;;;;;18.86;34.33;102255.72;5078656;28;50966;-51
2022/03/01 04:50:22;;;;;;;;;17.50;15.50;;;;;18.86;34.20;102255.72;5068228;28;51238;-52
2022/03/01 04:52:47;;;;;;;;;16.25;14.00;;;;;18.85;34.18;102255.88;5073461;28;53296;-53
2022/03/01 04:55:13;;;;;;;;;16.75;15.25;;;;;18.84;34.18;102260.50;5057656;28;51386;-51
2022/03/01 04:57:39;;;;;;;;;13.50;12.75;;;;;18.83;34.24;102264.28;5075001;28;51071;-52
2022/03/01 05:00:11;;;;;;;;;17.25;14.75;;;;;18.84;34.02;102265.13;5075054;28;50876;-52
2022/03/01 05:02:42;;;;;;;;;19.75;15.25;;;;;18.83;34.35;102263.44;5076590;28;51988;-51
2022/03/01 05:05:10;;;;;;;;;20.75;17.00;;;;;18.82;33.98;102257.09;5077626;28;51037;-48
2022/03/01 05:07:37;;;;;;;;;16.50;15.75;;;;;18.82;34.29;102250.75;5060839;28;51183;-52
2022/03/01 05:10:03;;;;;;;;;19.50;16.00;;;;;18.81;34.12;102247.13;5058211;28;51091;-52
2022/03/01 05:12:28;;;;;;;;;19.25;16.00;;;;;18.81;34.10;102247.13;5075399;28;51248;-51
2022/03/01 05:14:53;;;;;;;;;16.50;14.75;;;;;18.80;34.12;102247.31;5077836;28;51117;-49
2022/03/01 05:17:19;;;;;;;;;15.50;15.25;;;;;18.79;34.02;102249.22;5071349;27;51020;-51
2022/03/01 05:19:44;;;;;;;;;17.00;15.00;;;;;18.80;34.18;102252.81;5077275;28;50957;-50
2022/03/01 05:22:09;;;;;;;;;15.50;14.50;;;;;18.78;33.92;102247.50;5075569;28;52122;-51
2022/03/01 05:24:35;;;;;;;;;17.00;14.50;;;;;18.77;34.25;102245.78;5077512;28;51016;-51
2022/03/01 05:27:00;;;;;;;;;16.50;15.75;;;;;18.77;34.11;102245.78;5065960;28;51486;-51
2022/03/01 05:29:25;;;;;;;;;18.75;16.00;;;;;18.76;33.99;102246.84;5075462;27;51152;-49
2022/03/01 05:31:52;;;;;;;;;21.25;17.50;;;;;18.76;34.36;102246.84;5068454;27;51698;-48
2022/03/01 05:34:18;;;;;;;;;21.25;15.75;;;;;18.75;34.12;102234.97;5057272;28;51540;-52
2022/03/01 05:36:44;;;;;;;;;15.25;15.00;;;;;18.75;34.11;102234.97;5064550;28;50974;-52
2022/03/01 05:39:09;;;;;;;;;18.50;16.25;;;;;18.75;34.03;102237.72;5065252;28;51845;-51
2022/03/01 05:41:34;;;;;;;;;15.50;14.25;;;;;18.74;34.22;102243.38;5071462;28;51169;-48
2022/03/01 05:44:00;;;;;;;;;15.00;15.00;;;;;18.74;34.13;102249.72;5057399;28;51161;-50
2022/03/01 05:46:25;;;;;;;;;12.00;9.25;;;;;18.74;34.02;102243.38;5062669;28;51119;-52
2022/03/01 05:48:51;;;;;;;;;17.75;15.75;;;;;18.74;34.49;102259.84;5092743;27;50996;-46
2022/03/01 05:51:18;;;;;;;;;22.00;21.75;;;;;18.74;33.84;102252.47;5082019;27;51944;-49
2022/03/01 05:53:44;;;;;;;;;27.25;25.00;;;;;18.73;32.96;102253.50;5057022;28;51374;-47
2022/03/01 05:56:09;;;;;;;;;29.50;25.50;;;;;18.71;32.73;102247.34;5060402;28;50960;-48
2022/03/01 05:58:34;;;;;;;;;38.25;33.50;;;;;18.70;32.47;102247.53;5092936;27;51001;-48
2022/03/01 06:01:00;;;;;;;;;30.25;28.25;;;;;18.66;31.99;102235.19;5070528;28;52008;-47
2022/03/01 06:03:25;;;;;;;;;39.75;33.00;;;;;18.63;31.82;102235.50;5056942;28;51000;-48
2022/03/01 06:05:50;;;;;;;;;41.75;34.75;;;;;18.61;31.40;102241.16;5057754;28;51674;-45
2022/03/01 06:08:16;;;;;;;;;35.25;32.25;;;;;18.57;31.39;102242.56;5056105;28;51110;-45
2022/03/01 06:10:41;;;;;;;;;38.00;33.00;;;;;18.53;31.16;102252.16;5057807;28;51820;-50
2022/03/01 06:13:06;;;;;;;;;39.00;33.00;;;;;18.52;31.23;102246.84;5057635;28;51026;-46
2022/03/01 06:15:32;;;;;;;;;39.00;35.50;;;;;18.47;30.94;102247.41;5056605;28;51174;-46
2022/03/01 06:17:57;;;;;;;;;38.75;33.75;;;;;18.43;30.82;102244.13;5059511;27;50942;-48
2022/03/01 06:20:23;;;;;;;;;42.50;34.25;;;;;18.40;30.63;102249.97;5056489;28;51115;-46
2022/03/01 06:22:48;;;;;;;;;36.25;33.00;;;;;18.37;30.75;102258.56;5062562;28;51084;-46
2022/03/01 06:25:14;;;;;;;;;40.00;33.75;;;;;18.32;30.59;102252.72;5076686;28;51038;-45
2022/03/01 06:27:40;;;;;;;;;39.50;33.25;;;;;18.29;30.57;102253.06;5060640;28;51223;-49
2022/03/01 06:30:07;;;;;;;;;37.00;34.25;;;;;18.25;30.34;102248.97;5073411;27;51058;-47
2022/03/01 06:32:33;;;;;;;;;45.75;35.00;;;;;18.22;30.23;102257.53;5062148;28;51190;-46
2022/03/01 06:34:58;;;;;;;;;33.50;32.00;;;;;18.17;30.36;102263.56;5056275;28;51204;-50
2022/03/01 06:37:24;;;;;;;;;41.00;34.25;;;;;18.14;31.13;102274.03;5067539;28;51343;-53
2022/03/01 06:39:50;;;;;;;;;34.50;31.50;;;;;18.13;31.30;102277.75;5059652;28;52658;-52
2022/03/01 06:42:17;;;;;;;;;37.50;32.75;;;;;18.16;31.83;102270.06;5061635;28;51613;-52
2022/03/01 06:44:42;;;;;;;;;34.25;28.50;;;;;18.22;32.08;102265.75;5075628;27;51164;-53
2022/03/01 06:47:08;;;;;;;;;28.25;28.25;;;;;18.29;32.43;102266.78;5067043;27;51278;-51
2022/03/01 06:49:33;;;;;;;;;36.75;28.25;;;;;18.38;32.68;102265.75;5066488;28;52093;-53
2022/03/01 06:51:59;;;;;;;;;26.50;24.25;;;;;18.48;32.74;102264.72;5070201;28;51139;-53
2022/03/01 06:54:25;;;;;;;;;25.75;22.25;;;;;18.56;33.21;102279.28;5063963;28;50968;-53
2022/03/01 06:56:50;;;;;;;;;21.75;20.50;;;;;18.64;33.46;102281.13;5060352;27;51138;-53
2022/03/01 06:59:15;;;;;;;;;25.25;21.75;;;;;18.72;33.53;102281.13;5070700;28;51707;-52
2022/03/01 07:01:41;;;;;;;;;21.75;21.00;;;;;18.80;33.73;102289.34;5065537;28;51587;-50
2022/03/01 07:04:07;;;;;;;;;24.25;21.75;;;;;18.88;34.33;102281.09;5067182;28;51044;-53
2022/03/01 07:06:33;;;;;;;;;20.00;14.75;;;;;18.96;34.59;102289.28;5058436;27;52097;-49
2022/03/01 07:08:58;;;;;;;;;24.25;18.00;;;;;19.03;34.66;102293.03;5061175;28;51895;-51
2022/03/01 07:11:24;;;;;;;;;19.00;15.25;;;;;19.11;35.05;102289.41;5055496;28;51052;-52
2022/03/01 07:13:49;;;;;;;;;16.50;16.00;;;;;19.18;35.14;102293.16;5056263;28;50906;-52
2022/03/01 07:16:15;;;;;;;;;21.25;17.00;;;;;19.24;35.06;102302.56;5058264;28;51137;-52
2022/03/01 07:18:41;;;;;;;;;14.25;11.25;;;;;19.30;35.28;102293.63;5063213;27;51134;-49
2022/03/01 07:21:07;;;;;;;;;17.75;14.50;;;;;19.39;35.29;102305.44;5055745;28;51198;-51
2022/03/01 07:23:32;;;;;;;;;16.00;16.00;;;;;19.44;35.28;102295.59;5067774;28;51363;-52
2022/03/01 07:25:57;;;;;;;;;19.50;16.00;;;;;19.51;35.10;102303.97;5055845;28;51129;-51
2022/03/01 07:28:23;;;;;;;;;17.00;14.50;;;;;19.57;35.37;102298.63;5057377;28;51394;-48
2022/03/01 07:30:48;;;;;;;;;22.50;22.50;;;;;19.63;35.15;102288.81;5061793;27;51402;-51
2022/03/01 07:33:13;;;;;;;;;17.75;16.00;;;;;19.70;35.64;102294.44;5066677;28;51192;-51
2022/03/01 07:35:39;;;;;;;;;13.50;12.50;;;;;19.74;35.48;102291.13;5058827;28;51457;-52
2022/03/01 07:38:04;;;;;;;;;17.00;14.50;;;;;19.76;35.39;102300.06;5063880;27;51939;-50
2022/03/01 07:40:30;;;;;;;;;16.00;16.00;;;;;19.78;35.39;102289.72;5066149;27;51099;-54
2022/03/01 07:42:55;;;;;;;;;23.00;18.75;;;;;19.77;36.08;102289.91;5057565;28;51229;-54
2022/03/01 07:45:21;;;;;;;;;21.00;16.50;;;;;19.76;35.32;102300.06;5050831;28;51385;-50
2022/03/01 07:47:47;;;;;;;;;15.75;13.75;;;;;19.78;35.48;102288.88;5065578;28;51107;-53
2022/03/01 07:50:13;;;;;;;;;18.00;16.00;;;;;19.79;36.09;102291.44;5054971;28;51226;-52
2022/03/01 07:52:39;;;;;;;;;16.75;16.00;;;;;19.80;36.32;102293.19;5061997;28;52038;-52
2022/03/01 07:55:05;;;;;;;;;17.75;14.00;;;;;19.78;35.94;102284.22;5074134;28;50950;-52
2022/03/01 07:57:30;;;;;;;;;15.25;15.25;;;;;19.75;36.14;102281.00;5061471;27;52894;-52
2022/03/01 07:59:56;;;;;;;;;13.75;13.50;;;;;19.71;35.99;102287.91;5054925;28;50928;-51
2022/03/01 08:02:21;;;;;;;;;15.75;15.50;;;;;19.67;36.14;102281.03;5066977;28;51128;-51
2022/03/01 08:04:46;;;;;;;;;18.25;15.50;;;;;19.63;36.51;102293.47;5075796;28;51087;-53
2022/03/01 08:07:12;;;;;;;;;23.50;18.75;;;;;19.59;36.37;102287.44;5066884;28;51027;-53
2022/03/01 08:09:39;;;;;;;;;17.75;16.00;;;;;19.54;36.64;102292.63;5054821;28;51038;-50
2022/03/01 08:12:05;;;;;;;;;16.75;15.00;;;;;19.48;36.79;102296.94;5055081;28;51126;-52
2022/03/01 08:14:32;;;;;;;;;22.75;15.75;;;;;19.45;36.95;102302.78;5054873;28;51258;-51
2022/03/01 08:16:58;;;;;;;;;17.25;15.25;;;;;19.42;37.08;102294.94;5055830;28;51025;-51
2022/03/01 08:19:24;;;;;;;;;12.75;11.25;;;;;19.37;36.80;102291.00;5054709;28;51140;-52
2022/03/01 08:21:49;;;;;;;;;17.50;17.00;;;;;19.35;37.03;102298.56;5054545;27;51060;-50
2022/03/01 08:24:15;;;;;;;;;14.75;13.50;;;;;19.30;37.48;102293.63;5055278;28;50967;-53
2022/03/01 08:26:41;;;;;;;;;22.25;16.00;;;;;19.27;37.15;102303.06;5056217;28;51816;-55
2022/03/01 08:29:07;;;;;;;;;17.00;16.25;;;;;19.23;37.54;102296.22;5069163;27;51090;-51
2022/03/01 08:31:32;;;;;;;;;19.00;14.50;;;;;19.21;37.66;102294.69;5094656;27;51009;-51
2022/03/01 08:33:59;;;;;;;;;21.25;18.00;;;;;19.19;37.70;102294.03;5058415;28;50951;-52
2022/03/01 08:36:26;;;;;;;;;18.00;14.50;;;;;19.15;37.95;102289.91;5057672;28;51890;-48
2022/03/01 08:38:52;;;;;;;;;17.50;15.50;;;;;19.11;37.93;102296.78;5068613;28;51392;-51
2022/03/01 08:41:17;;;;;;;;;22.25;17.75;;;;;19.09;37.45;102287.88;5078282;28;51325;-53
2022/03/01 08:43:43;;;;;;;;;16.75;15.50;;;;;19.06;37.89;102294.56;5078551;28;50963;-53
2022/03/01 08:46:12;;;;;;;;;14.25;14.00;;;;;19.05;37.74;102287.38;5077617;28;51909;-49
2022/03/01 08:48:38;;;;;;;;;17.25;15.75;;;;;19.02;37.88;102290.47;5076074;28;51524;-51
2022/03/01 08:51:03;;;;;;;;;16.00;14.75;;;;;19.00;38.03;102290.66;5078328;28;51100;-53
2022/03/01 08:53:29;;;;;;;;;14.00;12.50;;;;;18.99;38.24;102301.81;5078127;28;51202;-51
2022/03/01 08:55:54;;;;;;;;;21.75;15.75;;;;;18.97;38.27;102299.25;5077938;28;51722;-53
2022/03/01 08:58:20;;;;;;;;;15.50;12.50;;;;;18.95;38.34;102304.03;5067232;28;51029;-52
2022/03/01 09:00:45;;;;;;;;;18.75;15.50;;;;;18.94;38.33;102299.59;5057512;28;51055;-53
2022/03/01 09:03:11;;;;;;;;;14.75;13.50;;;;;18.92;38.40;102306.31;5059238;28;51059;-52
2022/03/01 09:05:36;;;;;;;;;17.25;16.00;;;;;18.92;38.54;102315.41;5057774;28;51792;-53
2022/03/01 09:08:02;;;;;;;;;15.25;15.00;;;;;18.90;38.37;102306.47;5061390;28;51157;-53
2022/03/01 09:10:28;;;;;;;;;18.50;13.00;;;;;18.87;38.46;102306.00;5077721;28;51151;-51
2022/03/01 09:12:54;;;;;;;;;15.00;13.50;;;;;18.85;38.51;102317.13;5075940;28;51169;-52
2022/03/01 09:15:21;;;;;;;;;17.00;15.75;;;;;18.84;38.20;102323.66;5074665;27;51879;-53
2022/03/01 09:17:47;;;;;;;;;13.25;13.25;;;;;18.84;38.45;102320.03;5060366;28;53038;-53
2022/03/01 09:20:13;;;;;;;;;14.75;14.50;;;;;18.83;38.31;102321.09;5062098;28;51004;-52
2022/03/01 09:22:40;;;;;;;;;20.25;17.50;;;;;18.84;37.93;102314.56;5067457;28;51174;-48
2022/03/01 09:25:06;;;;;;;;;19.75;15.50;;;;;18.85;37.83;102308.88;5063393;28;51791;-52
2022/03/01 09:27:32;;;;;;;;;16.00;13.50;;;;;18.87;37.67;102306.84;5066302;27;51290;-52
2022/03/01 09:29:57;;;;;;;;;20.75;18.50;;;;;18.89;37.77;102301.19;5055292;27;51013;-52
2022/03/01 09:32:22;;;;;;;;;18.25;14.00;;;;;18.92;37.61;102300.81;5059660;27;51378;-50
2022/03/01 09:34:48;;;;;;;;;15.75;14.00;;;;;18.94;37.69;102302.34;5058758;28;51031;-56
2022/03/01 09:37:14;;;;;;;;;16.00;14.25;;;;;18.96;37.77;102297.53;5056423;28;51338;-53
2022/03/01 09:39:39;;;;;;;;;16.75;15.25;;;;;19.00;37.69;102304.38;5059734;28;51184;-52
2022/03/01 09:42:08;;;;;;;;;19.75;15.00;;;;;19.02;37.50;102295.97;5063211;27;51194;-52
2022/03/01 09:44:33;;;;;;;;;17.00;15.25;;;;;19.06;37.50;102299.22;5055444;28;52014;-51
2022/03/01 09:46:58;;;;;;;;;17.00;17.00;;;;;19.08;37.49;102294.41;5058984;27;51198;-51
2022/03/01 09:49:24;;;;;;;;;14.25;13.75;;;;;19.11;37.51;102283.06;5059003;28;51194;-52
2022/03/01 09:51:50;;;;;;;;;16.00;12.25;;;;;19.14;37.58;102293.69;5060250;27;51100;-53
2022/03/01 09:54:16;;;;;;;;;17.50;17.00;;;;;19.18;37.48;102286.81;5062194;27;51779;-51
2022/03/01 09:56:42;;;;;;;;;17.50;13.00;;;;;19.19;37.45;102286.63;5057644;27;51370;-53
2022/03/01 09:59:07;;;;;;;;;12.50;12.00;;;;;19.23;37.58;102293.47;5058792;27;51418;-52
2022/03/01 10:01:32;;;;;;;;;14.75;14.25;;;;;19.26;37.39;102295.84;5054952;28;51711;-51
2022/03/01 10:04:11;;;;;;;;;15.00;13.75;;;;;19.33;37.30;102296.00;5058891;28;51233;-56
2022/03/01 10:06:42;;;;;;;;;18.50;16.75;;;;;19.37;37.42;102301.97;5067223;28;51491;-52
2022/03/01 10:09:13;;;;;;;;;13.50;11.50;;;;;19.42;37.41;102305.06;5060566;27;51103;-50
2022/03/01 10:11:39;;;;;;;;;16.75;16.50;;;;;19.46;37.26;102300.91;5059821;28;51235;-52
2022/03/01 10:14:04;;;;;;;;;16.25;13.50;;;;;19.47;37.58;102295.22;5062947;27;51572;-52
2022/03/01 10:16:37;;;;;;;;;13.75;13.00;;;;;19.53;37.59;102307.41;5065244;27;51056;-50
2022/03/01 10:19:03;;;;;;;;;14.00;11.00;;;;;19.56;37.49;102307.91;5060817;28;51474;-50
2022/03/01 10:21:29;;;;;;;;;14.00;13.75;;;;;19.59;37.53;102313.06;5059957;28;53022;-51
2022/03/01 10:23:57;;;;;;;;;16.00;12.75;;;;;19.62;37.25;102308.25;5063960;27;51726;-51
2022/03/01 10:26:25;;;;;;;;;17.00;14.00;;;;;19.65;37.42;102307.88;5063218;27;51135;-52
2022/03/01 10:28:53;;;;;;;;;16.25;14.75;;;;;19.68;37.08;102308.34;5060729;27;52757;-51
2022/03/01 10:31:25;;;;;;;;;15.50;13.75;;;;;19.72;37.22;102303.38;5061144;28;51290;-52
2022/03/01 10:34:00;;;;;;;;;14.00;13.00;;;;;19.75;37.07;102300.25;5058512;27;52136;-50
2022/03/01 10:36:33;;;;;;;;;16.75;15.75;;;;;19.78;37.10;102286.13;5063850;27;51891;-49
2022/03/01 10:39:02;;;;;;;;;16.75;15.00;;;;;19.79;37.18;102283.19;5069714;27;51266;-50
2022/03/01 10:41:30;;;;;;;;;13.25;13.25;;;;;19.83;37.18;102289.19;5058715;28;51055;-50
2022/03/01 10:43:59;;;;;;;;;15.50;13.50;;;;;19.86;36.73;102283.31;5064133;28;54246;-48
2022/03/01 10:46:25;;;;;;;;;15.00;13.25;;;;;19.87;37.31;102287.78;5058102;27;51259;-48
2022/03/01 10:49:10;;;;;;;;;17.00;13.50;;;;;19.88;36.79;102284.84;5059920;28;51313;-51
2022/03/01 10:51:49;;;;;;;;;15.50;15.00;;;;;19.91;37.06;102289.13;5064616;27;51354;-51
2022/03/01 10:54:29;;;;;;;;;13.75;12.75;;;;;19.92;37.04;102285.34;5058394;28;51133;-51
2022/03/01 10:56:55;;;;;;;;;16.25;16.00;;;;;19.93;36.88;102284.31;5058800;27;51444;-52
2022/03/01 10:59:22;;;;;;;;;13.75;13.75;;;;;19.94;36.98;102277.75;5056347;27;51141;-55
2022/03/01 11:01:47;;;;;;;;;20.25;16.00;;;;;19.95;36.93;102275.88;5062353;28;51301;-53
2022/03/01 11:04:13;;;;;;;;;17.50;14.75;;;;;20.00;36.89;102278.91;5061176;27;51041;-57